Time;durP1;ratioP1;P1;durP2;ratioP2;P2;SDS_P1;SDS_P2;PMS_P1;PMS_P2;Temp;Humidity;BMP_temperature;BMP_pressure;BME280_temperature;BME280_humidity;BME280_pressure;Samples;Min_cycle;Max_cycle;Signal;HPM_P1;HPM_P2
2021/05/21 00:01:48;;;;;;;7.77;3.17;;;;;;;;;;5071883;28;20059;-67
2021/05/21 00:04:14;;;;;;;5.87;3.20;;;;;;;;;;5075917;28;20412;-67
2021/05/21 00:06:39;;;;;;;4.83;2.60;;;;;;;;;;5078810;28;20103;-67
2021/05/21 00:09:04;;;;;;;6.80;3.17;;;;;;;;;;5075955;28;20063;-67
2021/05/21 00:11:30;;;;;;;7.43;3.20;;;;;;;;;;5075580;28;20078;-67
2021/05/21 00:13:55;;;;;;;5.93;3.30;;;;;;;;;;5075924;28;20366;-67
2021/05/21 00:16:20;;;;;;;8.30;3.67;;;;;;;;;;5079618;28;20101;-67
2021/05/21 00:18:51;;;;;;;6.47;3.70;;;;;;;;;;5075639;28;20044;-67
2021/05/21 00:21:16;;;;;;;7.30;3.57;;;;;;;;;;5078419;28;20456;-67
2021/05/21 00:23:41;;;;;;;7.23;3.30;;;;;;;;;;5076764;28;20035;-67
2021/05/21 00:26:07;;;;;;;5.80;2.90;;;;;;;;;;5077705;28;20035;-67
2021/05/21 00:28:32;;;;;;;6.20;3.20;;;;;;;;;;5073294;28;20029;-67
2021/05/21 00:30:57;;;;;;;6.40;3.33;;;;;;;;;;5075768;28;20035;-67
2021/05/21 00:33:22;;;;;;;5.70;2.67;;;;;;;;;;5075854;28;20027;-67
2021/05/21 00:35:47;;;;;;;5.70;3.00;;;;;;;;;;5081967;28;20028;-67
2021/05/21 00:38:13;;;;;;;6.30;3.07;;;;;;;;;;5074069;28;20030;-67
2021/05/21 00:40:38;;;;;;;5.60;2.80;;;;;;;;;;5068769;28;20037;-67
2021/05/21 00:43:03;;;;;;;6.10;3.00;;;;;;;;;;5071434;28;20026;-67
2021/05/21 00:45:28;;;;;;;6.77;3.30;;;;;;;;;;5074313;28;20468;-67
2021/05/21 00:47:54;;;;;;;5.77;2.57;;;;;;;;;;5067935;28;20373;-67
2021/05/21 00:50:19;;;;;;;6.67;2.80;;;;;;;;;;5070821;28;20052;-67
2021/05/21 00:52:44;;;;;;;6.87;2.90;;;;;;;;;;5084115;28;20032;-67
2021/05/21 00:55:10;;;;;;;5.10;2.60;;;;;;;;;;5073936;28;20428;-67
2021/05/21 00:57:36;;;;;;;5.57;2.40;;;;;;;;;;5072680;28;20118;-67
2021/05/21 01:00:02;;;;;;;6.03;2.70;;;;;;;;;;5076542;28;20024;-67
2021/05/21 01:02:28;;;;;;;8.60;2.50;;;;;;;;;;5095143;22;20149;-67
2021/05/21 01:04:53;;;;;;;4.53;2.30;;;;;;;;;;5072240;28;20492;-67
2021/05/21 01:07:18;;;;;;;8.20;2.17;;;;;;;;;;5066335;28;20032;-67
2021/05/21 01:09:44;;;;;;;4.30;2.10;;;;;;;;;;5075420;28;20032;-67
2021/05/21 01:12:09;;;;;;;3.87;1.87;;;;;;;;;;5075175;28;20377;-67
2021/05/21 01:14:34;;;;;;;4.73;2.40;;;;;;;;;;5075204;28;20052;-67
2021/05/21 01:17:00;;;;;;;5.30;2.00;;;;;;;;;;5070481;28;20031;-67
2021/05/21 01:19:25;;;;;;;4.37;1.97;;;;;;;;;;5073651;28;20102;-67
2021/05/21 01:21:50;;;;;;;6.17;1.90;;;;;;;;;;5073659;28;20718;-67
2021/05/21 01:24:16;;;;;;;5.03;1.80;;;;;;;;;;5074175;28;20384;-67
2021/05/21 01:26:42;;;;;;;5.23;2.10;;;;;;;;;;5074326;28;20032;-67
2021/05/21 01:29:07;;;;;;;3.40;1.73;;;;;;;;;;5075479;28;20040;-67
2021/05/21 01:31:33;;;;;;;3.47;1.77;;;;;;;;;;5069816;28;20059;-67
2021/05/21 01:33:58;;;;;;;4.40;1.73;;;;;;;;;;5074384;28;20456;-67
2021/05/21 01:36:23;;;;;;;3.43;1.70;;;;;;;;;;5074533;28;20517;-67
2021/05/21 01:39:06;;;;;;;4.50;1.70;;;;;;;;;;5074185;28;20070;-67
2021/05/21 01:41:33;;;;;;;3.03;1.60;;;;;;;;;;5074314;28;20036;-67
2021/05/21 01:43:59;;;;;;;3.30;1.60;;;;;;;;;;5073942;28;20111;-67
2021/05/21 01:46:24;;;;;;;4.47;1.57;;;;;;;;;;5074448;28;20519;-67
2021/05/21 01:48:49;;;;;;;3.43;1.60;;;;;;;;;;5073946;28;20024;-67
2021/05/21 01:51:15;;;;;;;3.30;1.60;;;;;;;;;;5073337;28;20097;-67
2021/05/21 01:53:40;;;;;;;3.00;1.50;;;;;;;;;;5073992;28;20165;-67
2021/05/21 01:56:07;;;;;;;3.20;1.70;;;;;;;;;;5074027;28;20455;-67
2021/05/21 01:58:32;;;;;;;3.37;1.37;;;;;;;;;;5073585;28;20077;-67
2021/05/21 02:00:57;;;;;;;3.03;1.40;;;;;;;;;;5073234;28;20107;-67
2021/05/21 02:03:23;;;;;;;2.57;1.50;;;;;;;;;;5072420;28;20090;-67
2021/05/21 02:05:50;;;;;;;6.20;1.97;;;;;;;;;;5071593;28;20032;-67
2021/05/21 02:08:16;;;;;;;4.13;1.47;;;;;;;;;;5067444;28;20024;-67
2021/05/21 02:10:41;;;;;;;2.70;1.30;;;;;;;;;;5069429;28;20041;-67
2021/05/21 02:13:07;;;;;;;3.30;1.50;;;;;;;;;;5067994;28;20025;-67
2021/05/21 02:15:32;;;;;;;2.70;1.50;;;;;;;;;;5073049;28;20024;-67
2021/05/21 02:17:57;;;;;;;3.27;1.23;;;;;;;;;;5074573;28;20029;-66
2021/05/21 02:20:22;;;;;;;4.57;1.37;;;;;;;;;;5060147;28;20074;-67
2021/05/21 02:22:48;;;;;;;4.67;1.63;;;;;;;;;;5073586;28;20115;-67
2021/05/21 02:25:14;;;;;;;2.83;1.30;;;;;;;;;;5073762;28;20029;-67
2021/05/21 02:27:39;;;;;;;3.90;1.37;;;;;;;;;;5055651;28;20494;-67
2021/05/21 02:30:05;;;;;;;3.70;1.20;;;;;;;;;;5073193;28;20031;-67
2021/05/21 02:32:31;;;;;;;2.50;1.10;;;;;;;;;;5073743;28;20024;-67
2021/05/21 02:34:56;;;;;;;2.90;1.40;;;;;;;;;;5073433;28;20099;-67
2021/05/21 02:37:21;;;;;;;2.50;1.20;;;;;;;;;;5071999;28;20104;-67
2021/05/21 02:39:47;;;;;;;2.23;1.13;;;;;;;;;;5073902;28;20036;-67
2021/05/21 02:42:12;;;;;;;2.47;1.20;;;;;;;;;;5073119;28;20024;-67
2021/05/21 02:44:38;;;;;;;3.10;1.00;;;;;;;;;;5067972;28;20491;-67
2021/05/21 02:47:03;;;;;;;2.83;1.20;;;;;;;;;;5064041;28;20112;-67
2021/05/21 02:49:29;;;;;;;5.47;1.37;;;;;;;;;;5073594;28;20032;-67
2021/05/21 02:51:55;;;;;;;2.63;1.20;;;;;;;;;;5071621;28;20016;-67
2021/05/21 02:54:20;;;;;;;2.27;1.13;;;;;;;;;;5073288;28;20072;-67
2021/05/21 02:56:45;;;;;;;3.53;1.40;;;;;;;;;;5072703;28;20024;-67
2021/05/21 02:59:11;;;;;;;2.87;1.10;;;;;;;;;;5073455;28;20028;-67
2021/05/21 03:01:36;;;;;;;2.57;1.30;;;;;;;;;;5072162;28;20089;-67
2021/05/21 03:04:01;;;;;;;2.37;1.20;;;;;;;;;;5071874;28;20409;-67
2021/05/21 03:06:27;;;;;;;2.87;1.00;;;;;;;;;;5072050;28;20068;-67
2021/05/21 03:08:52;;;;;;;1.97;1.07;;;;;;;;;;5073443;28;20030;-67
2021/05/21 03:11:17;;;;;;;3.47;1.10;;;;;;;;;;5072568;28;20051;-67
2021/05/21 03:13:43;;;;;;;4.70;1.13;;;;;;;;;;5072712;28;20399;-67
2021/05/21 03:16:08;;;;;;;1.90;0.97;;;;;;;;;;5072045;28;20112;-67
2021/05/21 03:18:34;;;;;;;5.03;1.20;;;;;;;;;;5072675;28;20033;-67
2021/05/21 03:20:59;;;;;;;2.67;1.20;;;;;;;;;;5070632;28;20025;-67
2021/05/21 03:23:24;;;;;;;2.90;1.10;;;;;;;;;;5072873;28;20036;-67
2021/05/21 03:25:49;;;;;;;6.60;1.30;;;;;;;;;;5071286;28;20029;-67
2021/05/21 03:28:15;;;;;;;2.40;0.97;;;;;;;;;;5072774;28;20422;-67
2021/05/21 03:30:40;;;;;;;3.50;1.67;;;;;;;;;;5069786;28;20622;-67
2021/05/21 03:33:06;;;;;;;3.97;1.10;;;;;;;;;;5072375;28;20093;-67
2021/05/21 03:35:31;;;;;;;1.97;1.10;;;;;;;;;;5072362;28;20034;-67
2021/05/21 03:37:57;;;;;;;2.83;1.17;;;;;;;;;;5072788;28;20057;-67
2021/05/21 03:40:22;;;;;;;2.07;1.10;;;;;;;;;;5071046;28;20385;-67
2021/05/21 03:42:48;;;;;;;3.30;1.20;;;;;;;;;;5072550;28;20021;-67
2021/05/21 03:45:14;;;;;;;2.93;1.20;;;;;;;;;;5071696;28;20103;-67
2021/05/21 03:47:40;;;;;;;1.83;0.90;;;;;;;;;;5072657;28;20508;-67
2021/05/21 03:50:05;;;;;;;1.80;0.90;;;;;;;;;;5071418;28;20068;-67
2021/05/21 03:52:31;;;;;;;1.90;1.17;;;;;;;;;;5071772;28;20023;-67
2021/05/21 03:54:56;;;;;;;1.60;0.90;;;;;;;;;;5071974;28;20491;-67
2021/05/21 03:57:21;;;;;;;1.93;0.90;;;;;;;;;;5071884;28;20033;-67
2021/05/21 03:59:47;;;;;;;3.10;1.23;;;;;;;;;;5060921;28;20045;-67
2021/05/21 04:02:13;;;;;;;3.03;1.20;;;;;;;;;;5070599;28;20044;-67
2021/05/21 04:04:38;;;;;;;2.00;1.07;;;;;;;;;;5070644;28;20453;-67
2021/05/21 04:07:03;;;;;;;1.83;1.10;;;;;;;;;;5071305;28;20028;-67
2021/05/21 04:09:30;;;;;;;3.47;1.20;;;;;;;;;;5072319;28;20046;-67
2021/05/21 04:11:56;;;;;;;2.53;1.10;;;;;;;;;;5072004;28;20036;-67
2021/05/21 04:14:21;;;;;;;2.47;1.10;;;;;;;;;;5067171;28;20436;-67
2021/05/21 04:16:46;;;;;;;5.33;1.20;;;;;;;;;;5071295;28;20036;-67
2021/05/21 04:19:11;;;;;;;3.83;1.23;;;;;;;;;;5070964;28;20036;-68
2021/05/21 04:21:37;;;;;;;2.07;1.00;;;;;;;;;;5071534;28;20032;-68
2021/05/21 04:24:02;;;;;;;3.73;1.53;;;;;;;;;;5067982;28;20033;-69
2021/05/21 04:26:28;;;;;;;3.03;1.10;;;;;;;;;;5071892;28;20532;-68
2021/05/21 04:28:53;;;;;;;1.70;0.83;;;;;;;;;;5068485;28;20029;-68
2021/05/21 04:31:18;;;;;;;1.73;0.90;;;;;;;;;;5053060;28;20052;-68
2021/05/21 04:33:44;;;;;;;2.13;1.07;;;;;;;;;;5065421;28;20379;-68
2021/05/21 04:36:09;;;;;;;1.97;1.00;;;;;;;;;;5067395;28;20465;-67
2021/05/21 04:38:35;;;;;;;3.77;1.20;;;;;;;;;;5064685;28;20028;-68
2021/05/21 04:41:00;;;;;;;3.53;0.90;;;;;;;;;;5071640;28;20463;-67
2021/05/21 04:43:26;;;;;;;2.07;0.80;;;;;;;;;;5071254;28;20358;-67
2021/05/21 04:45:52;;;;;;;4.57;1.20;;;;;;;;;;5070861;28;20028;-67
2021/05/21 04:48:18;;;;;;;2.23;0.90;;;;;;;;;;5071445;28;20107;-67
2021/05/21 04:50:44;;;;;;;3.80;1.07;;;;;;;;;;5069862;28;20125;-67
2021/05/21 04:53:09;;;;;;;1.70;0.90;;;;;;;;;;5070939;28;20334;-67
2021/05/21 04:55:34;;;;;;;2.10;0.87;;;;;;;;;;5071358;28;20027;-67
2021/05/21 04:58:00;;;;;;;2.70;1.00;;;;;;;;;;5053845;28;20492;-67
2021/05/21 05:00:25;;;;;;;2.83;1.27;;;;;;;;;;5071153;28;20017;-67
2021/05/21 05:02:50;;;;;;;1.93;1.00;;;;;;;;;;5070330;28;20072;-67
2021/05/21 05:05:15;;;;;;;2.83;1.00;;;;;;;;;;5070773;28;20052;-67
2021/05/21 05:07:41;;;;;;;1.80;0.77;;;;;;;;;;5070451;28;20020;-68
2021/05/21 05:10:06;;;;;;;1.47;0.70;;;;;;;;;;5064193;28;20028;-68
2021/05/21 05:12:31;;;;;;;1.97;1.00;;;;;;;;;;5075102;28;20035;-68
2021/05/21 05:14:57;;;;;;;2.60;0.80;;;;;;;;;;5069328;28;20050;-70
2021/05/21 05:17:22;;;;;;;1.50;0.77;;;;;;;;;;5066026;28;20056;-69
2021/05/21 05:19:48;;;;;;;2.33;0.90;;;;;;;;;;5074524;28;20021;-68
2021/05/21 05:22:13;;;;;;;1.20;0.60;;;;;;;;;;5074126;28;20084;-68
2021/05/21 05:24:38;;;;;;;2.27;0.90;;;;;;;;;;5074980;28;20027;-67
2021/05/21 05:27:05;;;;;;;4.73;1.00;;;;;;;;;;5073431;28;20369;-67
2021/05/21 05:29:33;;;;;;;3.27;0.90;;;;;;;;;;5069466;28;20032;-67
2021/05/21 05:32:00;;;;;;;2.10;0.97;;;;;;;;;;5074307;28;20048;-67
2021/05/21 05:34:25;;;;;;;1.80;0.73;;;;;;;;;;5067438;28;20792;-67
2021/05/21 05:36:50;;;;;;;3.00;0.90;;;;;;;;;;5072568;28;20100;-67
2021/05/21 05:39:15;;;;;;;4.00;0.87;;;;;;;;;;5071867;28;20070;-67
2021/05/21 05:41:41;;;;;;;1.90;0.90;;;;;;;;;;5072239;28;20055;-67
2021/05/21 05:44:08;;;;;;;2.53;0.80;;;;;;;;;;5068952;28;20465;-67
2021/05/21 05:46:33;;;;;;;4.43;1.17;;;;;;;;;;5074148;28;20372;-67
2021/05/21 05:48:59;;;;;;;2.17;0.93;;;;;;;;;;5073636;28;20023;-67
2021/05/21 05:51:24;;;;;;;5.60;1.27;;;;;;;;;;5072936;28;20079;-67
2021/05/21 05:53:49;;;;;;;2.13;1.00;;;;;;;;;;5073786;28;20027;-67
2021/05/21 05:56:14;;;;;;;2.97;1.20;;;;;;;;;;5073540;28;20036;-66
2021/05/21 05:58:40;;;;;;;4.33;1.27;;;;;;;;;;5074376;28;20031;-67
2021/05/21 06:01:05;;;;;;;6.67;1.73;;;;;;;;;;5074064;28;20477;-68
2021/05/21 06:03:31;;;;;;;4.10;1.73;;;;;;;;;;5073396;28;20056;-65
2021/05/21 06:05:57;;;;;;;4.43;1.50;;;;;;;;;;5070777;28;20430;-66
2021/05/21 06:08:22;;;;;;;2.77;1.33;;;;;;;;;;5073755;28;20423;-66
2021/05/21 06:10:48;;;;;;;3.53;1.50;;;;;;;;;;5072355;28;20501;-66
2021/05/21 06:13:14;;;;;;;4.87;1.80;;;;;;;;;;5073986;28;20046;-67
2021/05/21 06:15:39;;;;;;;5.13;2.00;;;;;;;;;;5073771;28;20055;-66
2021/05/21 06:18:05;;;;;;;4.93;1.47;;;;;;;;;;5073740;28;20029;-69
2021/05/21 06:20:31;;;;;;;4.80;1.33;;;;;;;;;;5073166;28;20082;-69
2021/05/21 06:22:57;;;;;;;5.07;1.37;;;;;;;;;;5072910;28;20047;-66
2021/05/21 06:25:27;;;;;;;5.47;1.10;;;;;;;;;;5073206;28;20403;-66
2021/05/21 06:27:52;;;;;;;5.10;1.43;;;;;;;;;;5073558;28;20023;-68
2021/05/21 06:30:17;;;;;;;4.57;1.60;;;;;;;;;;5072973;28;20396;-68
2021/05/21 06:32:44;;;;;;;5.17;1.40;;;;;;;;;;5073542;28;20047;-68
2021/05/21 06:35:10;;;;;;;7.73;1.67;;;;;;;;;;5073022;28;20024;-69
2021/05/21 06:37:35;;;;;;;5.97;1.43;;;;;;;;;;5072942;28;20024;-68
2021/05/21 06:40:00;;;;;;;3.53;1.20;;;;;;;;;;5072849;28;20024;-69
2021/05/21 06:42:26;;;;;;;4.80;1.30;;;;;;;;;;5073315;28;20079;-69
2021/05/21 06:44:51;;;;;;;6.47;1.67;;;;;;;;;;5070773;28;20040;-69
2021/05/21 06:47:16;;;;;;;9.77;1.20;;;;;;;;;;5071995;28;20060;-69
2021/05/21 06:49:42;;;;;;;9.63;1.43;;;;;;;;;;5072994;28;20108;-69
2021/05/21 06:52:07;;;;;;;8.40;1.40;;;;;;;;;;5072453;28;20050;-69
2021/05/21 06:54:33;;;;;;;4.53;1.10;;;;;;;;;;5073447;28;20174;-69
2021/05/21 06:56:58;;;;;;;4.67;1.27;;;;;;;;;;5072513;28;20453;-69
2021/05/21 06:59:24;;;;;;;4.43;1.10;;;;;;;;;;5072912;28;20118;-69
2021/05/21 07:01:49;;;;;;;6.17;1.27;;;;;;;;;;5069519;28;20055;-69
2021/05/21 07:04:14;;;;;;;9.30;1.70;;;;;;;;;;5067917;28;20067;-69
2021/05/21 07:06:39;;;;;;;4.90;1.33;;;;;;;;;;5072005;28;20037;-68
2021/05/21 07:09:05;;;;;;;6.73;1.30;;;;;;;;;;5072110;28;20082;-68
2021/05/21 07:11:30;;;;;;;5.70;1.10;;;;;;;;;;5072200;28;20024;-69
2021/05/21 07:13:56;;;;;;;7.13;1.60;;;;;;;;;;5072228;28;20024;-69
2021/05/21 07:16:22;;;;;;;7.23;1.60;;;;;;;;;;5072944;28;20021;-69
2021/05/21 07:18:47;;;;;;;3.93;1.30;;;;;;;;;;5072885;28;20073;-67
2021/05/21 07:21:12;;;;;;;5.83;1.77;;;;;;;;;;5073042;28;20098;-67
2021/05/21 07:23:37;;;;;;;7.50;1.57;;;;;;;;;;5073142;28;20021;-66
2021/05/21 07:26:03;;;;;;;8.80;1.63;;;;;;;;;;5073004;28;20036;-66
2021/05/21 07:28:28;;;;;;;5.27;1.33;;;;;;;;;;5073004;28;20030;-66
2021/05/21 07:30:53;;;;;;;4.50;1.67;;;;;;;;;;5054579;28;20051;-66
2021/05/21 07:33:19;;;;;;;9.03;1.60;;;;;;;;;;5071706;28;20033;-66
2021/05/21 07:35:44;;;;;;;6.00;1.20;;;;;;;;;;5072606;28;20027;-66
2021/05/21 07:38:10;;;;;;;8.77;1.77;;;;;;;;;;5072607;28;20032;-66
2021/05/21 07:40:35;;;;;;;6.07;1.47;;;;;;;;;;5072751;28;20021;-66
2021/05/21 07:43:01;;;;;;;7.60;1.20;;;;;;;;;;5073021;28;20690;-67
2021/05/21 07:45:26;;;;;;;5.53;1.33;;;;;;;;;;5072291;28;20035;-67
2021/05/21 07:47:52;;;;;;;11.93;1.30;;;;;;;;;;5072624;28;20025;-66
2021/05/21 07:50:17;;;;;;;7.37;1.50;;;;;;;;;;5072457;28;20021;-66
2021/05/21 07:52:42;;;;;;;5.43;1.13;;;;;;;;;;5072893;28;20147;-66
2021/05/21 07:55:08;;;;;;;6.50;1.40;;;;;;;;;;5072317;28;20338;-66
2021/05/21 07:57:35;;;;;;;7.63;1.80;;;;;;;;;;5072383;28;20495;-66
2021/05/21 08:00:01;;;;;;;5.90;1.33;;;;;;;;;;5072440;28;20445;-66
2021/05/21 08:02:26;;;;;;;10.23;1.30;;;;;;;;;;5072276;28;20052;-67
2021/05/21 08:04:51;;;;;;;3.60;1.40;;;;;;;;;;5072586;28;20489;-66
2021/05/21 08:07:17;;;;;;;8.43;1.70;;;;;;;;;;5072342;28;20028;-70
2021/05/21 08:09:45;;;;;;;6.60;1.40;;;;;;;;;;5072764;28;20023;-72
2021/05/21 08:12:10;;;;;;;6.60;1.63;;;;;;;;;;5072368;28;20534;-75
2021/05/21 08:14:36;;;;;;;6.03;1.10;;;;;;;;;;5072713;28;20024;-70
2021/05/21 08:17:01;;;;;;;4.30;1.10;;;;;;;;;;5071926;28;20123;-68
2021/05/21 08:19:26;;;;;;;6.03;1.33;;;;;;;;;;5072160;28;20078;-67
2021/05/21 08:21:52;;;;;;;4.07;1.30;;;;;;;;;;5072137;28;20056;-67
2021/05/21 08:24:17;;;;;;;4.03;1.20;;;;;;;;;;5072109;28;20408;-66
2021/05/21 08:26:42;;;;;;;8.50;1.30;;;;;;;;;;5071778;28;20048;-68
2021/05/21 08:29:08;;;;;;;5.43;1.77;;;;;;;;;;5072547;28;20029;-66
2021/05/21 08:31:33;;;;;;;9.07;2.00;;;;;;;;;;5072203;28;20025;-66
2021/05/21 08:33:58;;;;;;;5.60;1.43;;;;;;;;;;5072475;28;20302;-66
2021/05/21 08:36:24;;;;;;;5.77;1.20;;;;;;;;;;5053891;28;20037;-66
2021/05/21 08:38:49;;;;;;;6.13;1.50;;;;;;;;;;5072498;28;20040;-66
2021/05/21 08:41:15;;;;;;;6.50;1.27;;;;;;;;;;5072126;28;20081;-66
2021/05/21 08:43:45;;;;;;;3.90;1.17;;;;;;;;;;5072274;28;20346;-66
2021/05/21 08:46:10;;;;;;;7.03;1.20;;;;;;;;;;5075189;28;20102;-66
2021/05/21 08:48:36;;;;;;;2.83;1.00;;;;;;;;;;5076101;28;20055;-66
2021/05/21 08:51:01;;;;;;;5.20;1.10;;;;;;;;;;5075763;28;20104;-66
2021/05/21 08:53:26;;;;;;;2.63;1.00;;;;;;;;;;5076094;28;20369;-66
2021/05/21 08:55:52;;;;;;;3.87;1.20;;;;;;;;;;5075628;28;20036;-66
2021/05/21 08:58:18;;;;;;;3.53;1.20;;;;;;;;;;5075685;28;20482;-66
2021/05/21 09:00:43;;;;;;;8.13;1.60;;;;;;;;;;5075563;28;20031;-66
2021/05/21 09:03:24;;;;;;;4.00;1.40;;;;;;;;;;5075421;28;20357;-66
2021/05/21 09:06:15;;;;;;;4.83;1.43;;;;;;;;;;5062712;28;20028;-66
2021/05/21 09:08:45;;;;;;;5.13;1.07;;;;;;;;;;5075390;28;20040;-66
2021/05/21 09:11:30;;;;;;;4.37;1.20;;;;;;;;;;5075035;28;20023;-68
2021/05/21 09:13:58;;;;;;;5.83;1.00;;;;;;;;;;5062175;28;20059;-69
2021/05/21 09:16:24;;;;;;;5.53;1.30;;;;;;;;;;5075349;28;20021;-67
2021/05/21 09:19:09;;;;;;;4.53;1.17;;;;;;;;;;5075623;28;20028;-67
2021/05/21 09:21:55;;;;;;;4.27;1.60;;;;;;;;;;5074906;28;20066;-67
2021/05/21 09:24:25;;;;;;;6.03;1.00;;;;;;;;;;5074635;28;20052;-66
2021/05/21 09:26:51;;;;;;;5.63;1.30;;;;;;;;;;5074562;28;20074;-66
2021/05/21 09:29:32;;;;;;;5.63;1.53;;;;;;;;;;5075471;28;20024;-66
2021/05/21 09:31:57;;;;;;;5.97;1.40;;;;;;;;;;5075006;28;20505;-66
2021/05/21 09:34:31;;;;;;;5.97;1.27;;;;;;;;;;5075266;28;20024;-66
2021/05/21 09:36:56;;;;;;;4.20;1.03;;;;;;;;;;5074717;28;20020;-66
2021/05/21 09:39:21;;;;;;;10.53;1.57;;;;;;;;;;5075029;28;20028;-66
2021/05/21 09:41:49;;;;;;;7.37;1.30;;;;;;;;;;5074589;28;20032;-66
2021/05/21 09:44:14;;;;;;;9.07;1.70;;;;;;;;;;5075159;28;20059;-66
2021/05/21 09:46:41;;;;;;;9.13;1.30;;;;;;;;;;5074711;28;20481;-66
2021/05/21 09:49:26;;;;;;;5.77;1.53;;;;;;;;;;5075158;28;20031;-66
2021/05/21 09:51:58;;;;;;;7.67;1.40;;;;;;;;;;5074454;28;20013;-67
2021/05/21 09:54:24;;;;;;;6.60;1.13;;;;;;;;;;5074905;28;20024;-66
2021/05/21 09:57:03;;;;;;;5.00;1.10;;;;;;;;;;5074362;28;20524;-66
2021/05/21 09:59:37;;;;;;;11.13;1.83;;;;;;;;;;5062379;28;20030;-66
2021/05/21 10:02:17;;;;;;;4.83;1.53;;;;;;;;;;5074229;28;20513;-66
2021/05/21 10:04:42;;;;;;;7.70;1.30;;;;;;;;;;5074301;28;20028;-65
2021/05/21 10:07:10;;;;;;;10.43;1.37;;;;;;;;;;5073934;28;20021;-65
2021/05/21 10:09:36;;;;;;;2.93;0.77;;;;;;;;;;5074362;28;20012;-65
2021/05/21 10:12:01;;;;;;;8.13;0.90;;;;;;;;;;5074194;28;20047;-65
2021/05/21 10:14:27;;;;;;;8.90;1.20;;;;;;;;;;5074727;28;20052;-65
2021/05/21 10:16:52;;;;;;;5.40;1.80;;;;;;;;;;5073910;28;20032;-65
2021/05/21 10:19:17;;;;;;;6.37;1.60;;;;;;;;;;5074303;28;20508;-65
2021/05/21 10:21:42;;;;;;;4.63;0.90;;;;;;;;;;5069853;28;20036;-65
2021/05/21 10:24:09;;;;;;;5.93;1.20;;;;;;;;;;5069622;28;20473;-65
2021/05/21 10:26:39;;;;;;;8.70;1.60;;;;;;;;;;5069955;28;20104;-65
2021/05/21 10:29:06;;;;;;;3.10;1.10;;;;;;;;;;5073715;28;20012;-65
2021/05/21 10:31:32;;;;;;;6.33;1.40;;;;;;;;;;5072790;28;20032;-65
2021/05/21 10:34:23;;;;;;;5.17;1.40;;;;;;;;;;5074137;28;20024;-65
2021/05/21 10:36:49;;;;;;;4.07;1.30;;;;;;;;;;5063620;28;20059;-66
2021/05/21 10:39:18;;;;;;;6.57;1.13;;;;;;;;;;5061960;28;20032;-65
2021/05/21 10:41:50;;;;;;;7.83;1.57;;;;;;;;;;5067378;28;20421;-66
2021/05/21 10:44:19;;;;;;;10.17;1.33;;;;;;;;;;5067801;28;20029;-66
2021/05/21 10:46:44;;;;;;;5.77;1.53;;;;;;;;;;5072076;28;20032;-66
2021/05/21 10:49:19;;;;;;;5.77;1.10;;;;;;;;;;5071219;28;20495;-65
2021/05/21 10:51:48;;;;;;;5.03;1.57;;;;;;;;;;5067014;28;20028;-66
2021/05/21 10:54:24;;;;;;;5.23;1.00;;;;;;;;;;5073332;28;20410;-66
2021/05/21 10:56:49;;;;;;;3.33;0.80;;;;;;;;;;5069713;28;20487;-66
2021/05/21 10:59:14;;;;;;;2.43;0.70;;;;;;;;;;5072685;28;20032;-66
2021/05/21 11:01:44;;;;;;;3.23;0.60;;;;;;;;;;5054656;28;20457;-66
2021/05/21 11:04:10;;;;;;;2.17;0.80;;;;;;;;;;5073071;28;20471;-65
2021/05/21 11:06:44;;;;;;;2.33;0.80;;;;;;;;;;5070170;28;20025;-65
2021/05/21 11:09:11;;;;;;;2.37;0.67;;;;;;;;;;5058963;28;20100;-65
2021/05/21 11:11:56;;;;;;;3.97;0.70;;;;;;;;;;5066545;28;20029;-65
2021/05/21 11:14:21;;;;;;;5.07;0.90;;;;;;;;;;5073108;28;20036;-65
2021/05/21 11:16:50;;;;;;;2.30;1.10;;;;;;;;;;5062519;28;20377;-65
2021/05/21 11:19:19;;;;;;;2.93;0.60;;;;;;;;;;5073269;28;20484;-65
2021/05/21 11:21:45;;;;;;;3.93;1.03;;;;;;;;;;5067682;28;20120;-66
2021/05/21 11:24:11;;;;;;;1.77;0.60;;;;;;;;;;5073018;28;20035;-66
2021/05/21 11:26:40;;;;;;;4.33;1.00;;;;;;;;;;5072252;28;20032;-65
2021/05/21 11:29:08;;;;;;;3.00;0.70;;;;;;;;;;5072986;28;20044;-66
2021/05/21 11:31:36;;;;;;;5.45;0.90;;;;;;;;;;5072260;28;20090;-66
2021/05/21 11:34:03;;;;;;;2.50;0.70;;;;;;;;;;5072907;28;20477;-66
2021/05/21 11:36:35;;;;;;;5.25;0.88;;;;;;;;;;5072533;28;20052;-65
2021/05/21 11:39:03;;;;;;;3.17;1.02;;;;;;;;;;5072663;28;20031;-65
2021/05/21 11:41:29;;;;;;;3.08;0.90;;;;;;;;;;5071703;28;20020;-65
2021/05/21 11:43:54;;;;;;;4.28;0.85;;;;;;;;;;5071246;28;20412;-65
2021/05/21 11:46:20;;;;;;;3.50;1.05;;;;;;;;;;5072320;28;20029;-65
2021/05/21 11:48:47;;;;;;;8.15;1.52;;;;;;;;;;5072419;28;20334;-65
2021/05/21 11:51:16;;;;;;;4.68;1.13;;;;;;;;;;5071685;28;20323;-65
2021/05/21 11:54:04;;;;;;;6.72;1.10;;;;;;;;;;5072642;28;20024;-65
2021/05/21 11:56:31;;;;;;;4.50;1.08;;;;;;;;;;5064566;28;20025;-65
2021/05/21 11:59:17;;;;;;;5.90;1.00;;;;;;;;;;5072229;28;20036;-65
2021/05/21 12:01:44;;;;;;;4.50;1.20;;;;;;;;;;5071683;28;20369;-65
2021/05/21 12:04:09;;;;;;;1.70;0.80;;;;;;;;;;5072458;28;20461;-64
2021/05/21 12:06:35;;;;;;;1.80;0.60;;;;;;;;;;5072223;28;20020;-64
2021/05/21 12:09:03;;;;;;;2.33;1.10;;;;;;;;;;5054053;28;20469;-66
2021/05/21 12:11:28;;;;;;;3.70;0.90;;;;;;;;;;5071950;28;20465;-66
2021/05/21 12:14:04;;;;;;;4.43;0.73;;;;;;;;;;5072495;28;20024;-66
2021/05/21 12:16:30;;;;;;;6.53;0.90;;;;;;;;;;5068012;28;20028;-67
2021/05/21 12:18:56;;;;;;;4.57;0.80;;;;;;;;;;5072724;28;20020;-67
2021/05/21 12:21:23;;;;;;;2.00;0.93;;;;;;;;;;5072291;28;20077;-68
2021/05/21 12:23:52;;;;;;;1.97;0.80;;;;;;;;;;5068256;28;20020;-68
2021/05/21 12:26:18;;;;;;;2.53;0.80;;;;;;;;;;5075499;28;20111;-68
2021/05/21 12:28:43;;;;;;;3.07;0.70;;;;;;;;;;5065387;28;20051;-67
2021/05/21 12:31:11;;;;;;;1.63;0.60;;;;;;;;;;5073238;28;20473;-68
2021/05/21 12:33:36;;;;;;;3.50;0.90;;;;;;;;;;5075077;28;20100;-67
2021/05/21 12:36:05;;;;;;;5.13;0.83;;;;;;;;;;5071601;28;20405;-67
2021/05/21 12:38:30;;;;;;;1.63;0.60;;;;;;;;;;5060936;28;20029;-67
2021/05/21 12:40:57;;;;;;;1.87;0.80;;;;;;;;;;5071861;28;20101;-67
2021/05/21 12:43:22;;;;;;;2.83;0.80;;;;;;;;;;5073722;28;20541;-67
2021/05/21 12:45:54;;;;;;;4.37;0.90;;;;;;;;;;5075069;28;20032;-68
2021/05/21 12:48:20;;;;;;;6.60;1.00;;;;;;;;;;5075011;28;20043;-67
2021/05/21 12:50:45;;;;;;;2.60;0.90;;;;;;;;;;5075679;28;20518;-67
2021/05/21 12:53:10;;;;;;;6.07;1.53;;;;;;;;;;5075484;28;20071;-67
2021/05/21 12:55:44;;;;;;;5.03;1.10;;;;;;;;;;5075162;28;20491;-67
2021/05/21 12:58:14;;;;;;;3.27;1.00;;;;;;;;;;5075443;28;20520;-67
2021/05/21 13:00:39;;;;;;;4.30;1.13;;;;;;;;;;5074682;28;20025;-66
2021/05/21 13:03:07;;;;;;;2.90;0.90;;;;;;;;;;5074669;28;20141;-66
2021/05/21 13:05:33;;;;;;;6.37;1.47;;;;;;;;;;5074858;28;20021;-66
2021/05/21 13:07:59;;;;;;;4.17;1.20;;;;;;;;;;5073486;28;20036;-66
2021/05/21 13:10:26;;;;;;;3.13;0.70;;;;;;;;;;5066698;28;20035;-66
2021/05/21 13:12:52;;;;;;;3.10;1.00;;;;;;;;;;5070749;28;20033;-66
2021/05/21 13:15:25;;;;;;;4.13;0.80;;;;;;;;;;5071343;28;20103;-66
2021/05/21 13:17:53;;;;;;;3.03;0.57;;;;;;;;;;5051630;28;20024;-66
2021/05/21 13:20:20;;;;;;;2.97;0.80;;;;;;;;;;5070468;28;20051;-66
2021/05/21 13:22:49;;;;;;;2.00;0.80;;;;;;;;;;5069834;28;20016;-66
2021/05/21 13:25:15;;;;;;;3.93;0.77;;;;;;;;;;5068344;28;20094;-66
2021/05/21 13:27:40;;;;;;;3.33;0.90;;;;;;;;;;5070167;28;20028;-66
2021/05/21 13:30:07;;;;;;;6.17;0.80;;;;;;;;;;5068993;28;20392;-66
2021/05/21 13:32:33;;;;;;;2.67;0.83;;;;;;;;;;5066461;28;20017;-66
2021/05/21 13:34:58;;;;;;;4.90;0.90;;;;;;;;;;5052430;28;20028;-66
2021/05/21 13:37:24;;;;;;;5.23;0.70;;;;;;;;;;5070996;28;20036;-66
2021/05/21 13:39:51;;;;;;;6.23;1.10;;;;;;;;;;5052379;28;20696;-66
2021/05/21 13:42:17;;;;;;;4.83;0.73;;;;;;;;;;5069698;28;20029;-66
2021/05/21 13:44:42;;;;;;;6.97;1.13;;;;;;;;;;5069919;28;20101;-66
2021/05/21 13:47:08;;;;;;;5.37;1.00;;;;;;;;;;5069173;28;20060;-66
2021/05/21 13:49:33;;;;;;;3.47;0.80;;;;;;;;;;5071333;28;20472;-66
2021/05/21 13:51:59;;;;;;;2.80;0.70;;;;;;;;;;5076236;28;20064;-65
2021/05/21 13:54:25;;;;;;;4.67;0.70;;;;;;;;;;5070025;28;20483;-65
2021/05/21 13:56:51;;;;;;;3.87;0.83;;;;;;;;;;5068604;28;20021;-65
2021/05/21 13:59:16;;;;;;;3.70;0.80;;;;;;;;;;5069015;28;20031;-65
2021/05/21 14:01:41;;;;;;;2.90;0.80;;;;;;;;;;5066353;28;20036;-66
2021/05/21 14:04:09;;;;;;;7.90;1.00;;;;;;;;;;5070170;28;20028;-66
2021/05/21 14:06:35;;;;;;;7.70;1.13;;;;;;;;;;5068538;28;20505;-65
2021/05/21 14:09:01;;;;;;;3.20;0.87;;;;;;;;;;5064415;28;20068;-66
2021/05/21 14:11:26;;;;;;;4.73;0.90;;;;;;;;;;5067739;28;20095;-65
2021/05/21 14:13:52;;;;;;;8.80;1.30;;;;;;;;;;5067267;28;20484;-65
2021/05/21 14:16:17;;;;;;;2.63;0.70;;;;;;;;;;5069399;28;20051;-65
2021/05/21 14:18:42;;;;;;;5.40;1.27;;;;;;;;;;5069088;28;20496;-66
2021/05/21 14:21:08;;;;;;;5.50;1.10;;;;;;;;;;5069980;28;20039;-66
2021/05/21 14:23:34;;;;;;;4.43;0.67;;;;;;;;;;5065160;28;20024;-66
2021/05/21 14:26:00;;;;;;;2.27;0.77;;;;;;;;;;5069297;28;20025;-66
2021/05/21 14:28:26;;;;;;;8.10;0.90;;;;;;;;;;5069373;28;20416;-67
2021/05/21 14:30:51;;;;;;;3.70;1.07;;;;;;;;;;5066802;28;20059;-67
2021/05/21 14:33:18;;;;;;;3.77;0.93;;;;;;;;;;5067512;28;20039;-67
2021/05/21 14:35:43;;;;;;;2.50;1.13;;;;;;;;;;5069676;28;20023;-67
2021/05/21 14:38:09;;;;;;;6.40;1.10;;;;;;;;;;5069032;28;20025;-67
2021/05/21 14:40:34;;;;;;;3.53;1.10;;;;;;;;;;5068901;28;20109;-66